Time;durP1;ratioP1;P1;durP2;ratioP2;P2;SDS_P1;SDS_P2;PMS_P1;PMS_P2;Temp;Humidity;BMP_temperature;BMP_pressure;BME280_temperature;BME280_humidity;BME280_pressure;Samples;Min_cycle;Max_cycle;Signal;HPM_P1;HPM_P2
2022/11/21 00:00:26;;;;;;;19.40;15.43;;;1.80;99.90;;;;;;4811010;29;20046;-81
2022/11/21 00:02:51;;;;;;;18.30;15.40;;;1.90;99.90;;;;;;4808553;29;20042;-80
2022/11/21 00:05:17;;;;;;;21.15;16.40;;;1.80;99.90;;;;;;4808973;29;20575;-81
2022/11/21 00:07:44;;;;;;;23.23;16.77;;;1.80;99.90;;;;;;4808749;29;20125;-81
2022/11/21 00:10:11;;;;;;;22.85;15.05;;;1.80;99.90;;;;;;4810517;29;20042;-80
2022/11/21 00:12:37;;;;;;;19.83;15.40;;;1.80;99.90;;;;;;4794428;29;20078;-82
2022/11/21 00:15:04;;;;;;;18.23;14.77;;;1.90;99.90;;;;;;4794091;29;20497;-80
2022/11/21 00:17:29;;;;;;;16.90;14.63;;;1.90;99.90;;;;;;4809677;29;20063;-81
2022/11/21 00:19:55;;;;;;;18.95;14.48;;;1.80;99.90;;;;;;4806586;29;20379;-80
2022/11/21 00:22:20;;;;;;;21.33;15.18;;;1.90;99.90;;;;;;4812726;29;20128;-80
2022/11/21 00:24:46;;;;;;;17.02;14.90;;;1.80;99.90;;;;;;4810367;29;20090;-81
2022/11/21 00:27:11;;;;;;;18.88;14.70;;;1.90;99.90;;;;;;4806494;29;20115;-81
2022/11/21 00:29:37;;;;;;;21.27;16.00;;;1.80;99.90;;;;;;4794455;29;20090;-82
2022/11/21 00:32:03;;;;;;;20.38;15.60;;;1.80;99.90;;;;;;4805245;29;20043;-80
2022/11/21 00:34:28;;;;;;;19.48;14.85;;;1.80;99.90;;;;;;4811324;29;20045;-80
2022/11/21 00:36:54;;;;;;;18.85;15.48;;;1.80;99.90;;;;;;4792775;29;20035;-82
2022/11/21 00:39:19;;;;;;;19.70;15.85;;;1.80;99.90;;;;;;4809336;29;20066;-80
2022/11/21 00:41:45;;;;;;;19.23;15.55;;;1.70;99.90;;;;;;4795608;29;20057;-81
2022/11/21 00:44:10;;;;;;;19.65;15.48;;;1.70;99.90;;;;;;4791037;29;20107;-81
2022/11/21 00:46:36;;;;;;;20.92;16.88;;;1.70;99.90;;;;;;4810970;29;20098;-80
2022/11/21 00:49:01;;;;;;;21.98;15.98;;;1.70;99.90;;;;;;4810345;29;20079;-80
2022/11/21 00:51:27;;;;;;;18.33;14.68;;;1.70;99.90;;;;;;4810714;29;20100;-81
2022/11/21 00:53:52;;;;;;;21.50;16.73;;;1.70;99.90;;;;;;4808568;29;20059;-81
2022/11/21 00:56:18;;;;;;;18.80;14.85;;;1.70;99.90;;;;;;4808567;29;20050;-80
2022/11/21 00:58:43;;;;;;;20.75;15.05;;;1.80;99.90;;;;;;4810682;29;20072;-81
2022/11/21 01:01:12;;;;;;;19.05;15.07;;;1.80;99.90;;;;;;4809735;29;20051;-80
2022/11/21 01:03:38;;;;;;;18.10;15.43;;;1.80;99.90;;;;;;4822362;29;20065;-81
2022/11/21 01:06:06;;;;;;;18.50;14.98;;;1.80;99.90;;;;;;4791059;29;20038;-80
2022/11/21 01:08:34;;;;;;;18.92;15.35;;;1.80;99.90;;;;;;4823797;29;20054;-80
2022/11/21 01:11:05;;;;;;;18.98;15.25;;;1.80;99.90;;;;;;4822492;29;20030;-80
2022/11/21 01:13:31;;;;;;;21.88;15.57;;;1.90;99.90;;;;;;4809213;29;20780;-80
2022/11/21 01:16:12;;;;;;;21.05;16.60;;;1.80;99.90;;;;;;4807895;29;20467;-80
2022/11/21 01:18:37;;;;;;;19.30;14.50;;;1.70;99.90;;;;;;4804910;29;20062;-81
2022/11/21 01:21:06;;;;;;;20.25;15.25;;;1.80;99.90;;;;;;4790724;29;20039;-80
2022/11/21 01:23:32;;;;;;;19.67;15.70;;;1.80;99.90;;;;;;4808484;29;20073;-81
2022/11/21 01:26:05;;;;;;;20.17;16.48;;;1.80;99.90;;;;;;4810469;29;20063;-80
2022/11/21 01:28:30;;;;;;;20.17;16.52;;;1.80;99.90;;;;;;4808011;29;20073;-80
2022/11/21 01:31:03;;;;;;;20.23;15.75;;;1.80;99.90;;;;;;4808735;29;20489;-81
2022/11/21 01:33:29;;;;;;;20.02;16.35;;;1.80;99.90;;;;;;4809659;29;20063;-80
2022/11/21 01:35:54;;;;;;;22.77;17.10;;;1.70;99.90;;;;;;4790933;29;20160;-80
2022/11/21 01:38:20;;;;;;;21.23;16.17;;;1.70;99.90;;;;;;4792316;29;20042;-81
2022/11/21 01:40:46;;;;;;;20.63;15.90;;;1.70;99.90;;;;;;4808821;29;20281;-80
2022/11/21 01:43:14;;;;;;;19.92;15.93;;;1.80;99.90;;;;;;4808477;29;20046;-80
2022/11/21 01:45:55;;;;;;;20.27;16.17;;;1.80;99.90;;;;;;4822255;29;20582;-80
2022/11/21 01:48:51;;;;;;;22.23;17.10;;;1.90;99.90;;;;;;4825562;29;20072;-81
2022/11/21 01:51:34;;;;;;;23.13;16.63;;;1.80;99.90;;;;;;4823225;29;20102;-80
2022/11/21 01:54:04;;;;;;;22.40;17.05;;;1.90;99.90;;;;;;4812565;29;20429;-81
2022/11/21 01:56:35;;;;;;;22.98;16.90;;;1.80;99.90;;;;;;4805794;29;20050;-80
2022/11/21 01:59:02;;;;;;;22.58;18.45;;;1.80;99.90;;;;;;4791323;29;20057;-81
2022/11/21 02:01:28;;;;;;;21.05;17.40;;;1.80;99.90;;;;;;4822128;29;20044;-80
2022/11/21 02:03:56;;;;;;;21.70;17.05;;;1.80;99.90;;;;;;4790581;29;20054;-80
2022/11/21 02:06:23;;;;;;;20.63;17.58;;;1.90;99.90;;;;;;4806979;29;20038;-80
2022/11/21 02:08:49;;;;;;;22.90;17.98;;;1.80;99.90;;;;;;4788569;29;20042;-80
2022/11/21 02:11:47;;;;;;;22.13;17.20;;;1.90;99.90;;;;;;4807237;29;20387;-80
2022/11/21 02:14:13;;;;;;;22.45;17.92;;;1.80;99.90;;;;;;4798997;29;20054;-80
2022/11/21 02:16:39;;;;;;;22.42;17.10;;;1.80;99.90;;;;;;4808638;29;20096;-80
2022/11/21 02:19:09;;;;;;;24.15;18.08;;;1.70;99.90;;;;;;4820982;29;20046;-80
2022/11/21 02:22:01;;;;;;;21.58;15.98;;;1.70;99.90;;;;;;4787712;29;20050;-82
2022/11/21 02:24:54;;;;;;;19.65;15.88;;;1.70;99.90;;;;;;4821947;29;20545;-80
2022/11/21 02:27:20;;;;;;;19.80;16.63;;;1.60;99.90;;;;;;4806752;29;20043;-80
2022/11/21 02:29:46;;;;;;;21.50;16.52;;;1.60;99.90;;;;;;4805353;29;20121;-79
2022/11/21 02:32:20;;;;;;;20.15;16.02;;;1.50;99.90;;;;;;4823627;29;20109;-80
2022/11/21 02:34:46;;;;;;;20.42;15.82;;;1.50;99.90;;;;;;4803760;29;20506;-81
2022/11/21 02:37:11;;;;;;;21.83;15.90;;;1.40;99.90;;;;;;4791469;29;20042;-80
2022/11/21 02:39:37;;;;;;;22.77;15.90;;;1.40;99.90;;;;;;4806108;29;20042;-80
2022/11/21 02:42:15;;;;;;;24.30;16.15;;;1.40;99.90;;;;;;4808485;29;20908;-79
2022/11/21 02:44:47;;;;;;;22.17;15.63;;;1.30;99.90;;;;;;4804017;29;20033;-80
2022/11/21 02:47:12;;;;;;;23.08;17.08;;;1.20;99.90;;;;;;4803629;29;20625;-80
2022/11/21 02:49:52;;;;;;;25.33;18.17;;;1.20;99.90;;;;;;4804259;29;20061;-79
2022/11/21 02:52:18;;;;;;;29.30;18.33;;;1.20;99.90;;;;;;4820666;29;20508;-80
2022/11/21 02:54:43;;;;;;;23.90;16.13;;;1.10;99.90;;;;;;4786996;29;20133;-79
2022/11/21 02:57:09;;;;;;;23.75;17.30;;;1.00;99.90;;;;;;4803697;29;20050;-80
2022/11/21 02:59:34;;;;;;;23.23;16.83;;;0.90;99.90;;;;;;4805875;29;20035;-79
2022/11/21 03:02:01;;;;;;;19.95;15.43;;;0.90;99.90;;;;;;4797290;29;20046;-79
2022/11/21 03:04:26;;;;;;;20.55;16.92;;;0.80;99.90;;;;;;4806682;29;20050;-79
2022/11/21 03:06:52;;;;;;;24.30;17.35;;;0.70;99.90;;;;;;4803532;29;20104;-80
2022/11/21 03:09:17;;;;;;;25.08;16.95;;;0.70;99.90;;;;;;4802398;29;20081;-81
2022/11/21 03:11:43;;;;;;;21.58;17.40;;;0.90;99.90;;;;;;4801196;29;20109;-80
2022/11/21 03:14:08;;;;;;;26.15;17.20;;;0.70;99.90;;;;;;4800803;29;20050;-79
2022/11/21 03:16:34;;;;;;;21.83;16.75;;;0.70;99.90;;;;;;4817445;29;20042;-79
2022/11/21 03:19:00;;;;;;;24.23;17.55;;;0.60;99.90;;;;;;4819564;29;20058;-80
2022/11/21 03:21:25;;;;;;;24.73;17.63;;;0.60;99.90;;;;;;4802239;29;20041;-79
2022/11/21 03:23:51;;;;;;;19.13;15.23;;;0.60;99.90;;;;;;4801345;29;20056;-79
2022/11/21 03:26:16;;;;;;;17.50;14.68;;;0.50;99.90;;;;;;4799036;29;20051;-79
2022/11/21 03:28:42;;;;;;;19.05;15.13;;;0.60;99.90;;;;;;4787020;29;20117;-79
2022/11/21 03:31:07;;;;;;;20.08;16.02;;;0.60;99.90;;;;;;4802288;29;20601;-79
2022/11/21 03:33:33;;;;;;;23.50;16.00;;;0.50;99.90;;;;;;4806667;29;20042;-80
2022/11/21 03:35:58;;;;;;;20.75;16.55;;;0.40;99.90;;;;;;4819245;29;20042;-80
2022/11/21 03:38:24;;;;;;;20.40;16.00;;;0.40;99.90;;;;;;4804742;29;20042;-79
2022/11/21 03:40:50;;;;;;;23.98;18.30;;;0.30;99.90;;;;;;4790576;29;20054;-79
2022/11/21 03:43:15;;;;;;;19.20;15.43;;;0.60;99.90;;;;;;4804716;29;20043;-79
2022/11/21 03:45:41;;;;;;;22.92;17.33;;;0.30;99.90;;;;;;4806773;29;20039;-80
2022/11/21 03:48:06;;;;;;;23.30;18.55;;;0.20;99.90;;;;;;4802816;29;20042;-81
2022/11/21 03:50:32;;;;;;;19.60;15.90;;;0.20;99.90;;;;;;4819627;29;20035;-79
2022/11/21 03:52:57;;;;;;;20.65;15.68;;;0.30;99.90;;;;;;4786801;29;20065;-79
2022/11/21 03:55:23;;;;;;;24.35;16.88;;;0.30;99.90;;;;;;4802865;29;20046;-80
2022/11/21 03:57:48;;;;;;;23.02;17.15;;;0.30;99.90;;;;;;4805171;29;20038;-79
2022/11/21 04:00:15;;;;;;;21.33;17.10;;;0.30;99.90;;;;;;4818675;29;20054;-79
2022/11/21 04:02:40;;;;;;;22.70;17.45;;;0.30;99.90;;;;;;4786799;29;20096;-79
2022/11/21 04:05:06;;;;;;;26.17;17.73;;;0.30;99.90;;;;;;4790048;29;20042;-79
2022/11/21 04:07:31;;;;;;;24.20;17.88;;;0.30;99.90;;;;;;4803109;29;20062;-79
2022/11/21 04:09:57;;;;;;;24.42;17.50;;;0.20;99.90;;;;;;4818684;29;20046;-79
2022/11/21 04:12:22;;;;;;;27.95;19.52;;;0.20;99.90;;;;;;4817110;29;20055;-79
2022/11/21 04:14:48;;;;;;;24.73;18.25;;;0.20;99.90;;;;;;4802532;29;20046;-80
2022/11/21 04:17:13;;;;;;;24.23;17.42;;;0.20;99.90;;;;;;4786273;29;20050;-79
2022/11/21 04:19:39;;;;;;;24.23;18.48;;;0.20;99.90;;;;;;4800932;29;20476;-79
2022/11/21 04:22:04;;;;;;;26.90;18.23;;;0.20;99.90;;;;;;4803554;29;20046;-79
2022/11/21 04:24:30;;;;;;;31.17;21.10;;;0.20;99.90;;;;;;4818364;29;20518;-79
2022/11/21 04:26:55;;;;;;;25.50;18.80;;;0.10;99.90;;;;;;4801601;29;20076;-79
2022/11/21 04:29:21;;;;;;;24.98;18.30;;;0.20;99.90;;;;;;4803903;29;20133;-79
2022/11/21 04:31:47;;;;;;;25.75;18.67;;;0.20;99.90;;;;;;4800696;29;20042;-80
2022/11/21 04:34:12;;;;;;;27.42;18.35;;;0.30;99.90;;;;;;4817178;29;20047;-80
2022/11/21 04:36:38;;;;;;;26.65;17.92;;;0.10;99.90;;;;;;4802965;29;20038;-79
2022/11/21 04:39:03;;;;;;;22.02;16.42;;;0.00;99.90;;;;;;4818163;29;20042;-79
2022/11/21 04:41:29;;;;;;;25.52;17.60;;;0.30;99.90;;;;;;4803129;29;20042;-79
2022/11/21 04:43:55;;;;;;;23.10;16.10;;;0.10;99.90;;;;;;4801494;29;20440;-80
2022/11/21 04:46:20;;;;;;;25.75;18.45;;;0.10;99.90;;;;;;4816506;29;20137;-79
2022/11/21 04:48:46;;;;;;;27.10;19.15;;;0.00;99.90;;;;;;4802482;29;20042;-79
2022/11/21 04:51:11;;;;;;;23.35;16.90;;;0.00;99.90;;;;;;4802240;29;20410;-79
2022/11/21 04:53:37;;;;;;;20.67;15.35;;;-0.10;99.90;;;;;;4804675;29;20058;-79
2022/11/21 04:56:04;;;;;;;20.45;16.60;;;0.20;99.90;;;;;;4796377;29;20034;-79
2022/11/21 04:58:30;;;;;;;29.70;16.88;;;-0.20;99.90;;;;;;4791035;29;20039;-82
2022/11/21 05:00:55;;;;;;;22.92;15.73;;;-0.10;99.90;;;;;;4796333;29;20095;-81
2022/11/21 05:03:21;;;;;;;23.05;16.98;;;-0.20;99.90;;;;;;4811243;29;20046;-81
2022/11/21 05:05:47;;;;;;;26.35;17.23;;;-0.20;99.90;;;;;;4815095;29;20043;-81
2022/11/21 05:08:13;;;;;;;24.88;17.33;;;-0.20;99.90;;;;;;4816028;29;20939;-81
2022/11/21 05:13:42;;;;;;;25.48;17.88;;;-0.20;99.90;;;;;;4778688;29;20055;-81
2022/11/21 05:16:08;;;;;;;27.77;18.58;;;-0.20;99.90;;;;;;4781487;29;20043;-82
2022/11/21 05:18:34;;;;;;;23.15;16.88;;;-0.30;99.90;;;;;;4804010;29;20129;-82
2022/11/21 05:21:03;;;;;;;23.52;17.42;;;0.30;99.90;;;;;;4798800;29;20056;-81
2022/11/21 05:23:29;;;;;;;24.77;18.67;;;-0.30;99.90;;;;;;4794307;29;20525;-81
2022/11/21 05:25:54;;;;;;;25.05;18.00;;;-0.10;99.90;;;;;;4815230;29;20557;-81
2022/11/21 05:28:20;;;;;;;28.75;18.83;;;-0.20;99.90;;;;;;4810662;29;20076;-81
2022/11/21 05:30:45;;;;;;;31.33;21.05;;;-0.30;99.90;;;;;;4790652;29;20125;-80
2022/11/21 05:33:11;;;;;;;27.63;20.02;;;-0.30;99.90;;;;;;4810242;29;20054;-79
2022/11/21 05:35:37;;;;;;;29.02;19.90;;;-0.20;99.90;;;;;;4805480;29;20057;-79
2022/11/21 05:38:03;;;;;;;32.00;19.15;;;-0.20;99.90;;;;;;4808356;29;20136;-79
2022/11/21 05:40:28;;;;;;;27.65;19.23;;;-0.20;99.90;;;;;;4806507;29;20040;-79
2022/11/21 05:45:38;;;;;;;27.63;19.60;;;-0.10;99.90;;;;;;4808524;29;20129;-80
2022/11/21 05:48:06;;;;;;;30.92;21.00;;;-0.10;99.90;;;;;;4806428;29;20070;-81
2022/11/21 05:50:34;;;;;;;29.63;21.02;;;-0.10;99.90;;;;;;4795899;29;20035;-81
2022/11/21 05:53:04;;;;;;;27.30;19.70;;;-0.10;99.90;;;;;;4822601;29;20031;-80
2022/11/21 05:55:30;;;;;;;29.58;20.88;;;-0.10;99.90;;;;;;4798552;29;20086;-80
2022/11/21 05:57:59;;;;;;;30.55;21.20;;;-0.10;99.90;;;;;;4804152;29;20038;-80
2022/11/21 06:00:26;;;;;;;33.80;21.30;;;-0.10;99.90;;;;;;4805377;29;20050;-80
2022/11/21 06:05:35;;;;;;;33.47;22.20;;;0.00;99.90;;;;;;4813923;29;20054;-80
2022/11/21 06:08:01;;;;;;;34.05;22.45;;;0.00;99.90;;;;;;4803426;29;20121;-81
2022/11/21 06:10:27;;;;;;;32.95;23.30;;;0.00;99.90;;;;;;4791267;29;20051;-81
2022/11/21 06:12:53;;;;;;;35.60;22.90;;;0.00;99.90;;;;;;4787525;29;20049;-82
2022/11/21 06:15:18;;;;;;;29.73;21.52;;;0.00;99.90;;;;;;4808351;29;20054;-80
2022/11/21 06:17:44;;;;;;;32.65;21.95;;;-0.10;99.90;;;;;;4805817;29;20698;-80
2022/11/21 06:20:10;;;;;;;34.83;22.77;;;0.00;99.90;;;;;;4808049;29;20052;-80
2022/11/21 06:22:35;;;;;;;31.10;23.15;;;0.00;99.90;;;;;;4797250;29;20413;-80
2022/11/21 06:25:01;;;;;;;33.80;22.38;;;0.00;99.90;;;;;;4806903;29;20053;-79
2022/11/21 06:27:29;;;;;;;29.45;21.83;;;0.00;99.90;;;;;;4802169;29;20062;-80
2022/11/21 06:29:55;;;;;;;29.08;20.45;;;0.00;99.90;;;;;;4799789;29;20061;-81
2022/11/21 06:32:21;;;;;;;33.97;22.50;;;-0.10;99.90;;;;;;4801589;29;20042;-80
2022/11/21 06:34:46;;;;;;;34.45;24.13;;;0.00;99.90;;;;;;4800628;29;20149;-79
2022/11/21 06:37:12;;;;;;;32.05;21.60;;;-0.10;99.90;;;;;;4802817;29;20042;-80
2022/11/21 06:39:37;;;;;;;31.23;22.25;;;-0.10;99.90;;;;;;4801411;29;20065;-80
2022/11/21 06:42:03;;;;;;;35.08;23.33;;;-0.10;99.90;;;;;;4785612;29;20129;-80
2022/11/21 06:44:29;;;;;;;32.88;22.52;;;-0.10;99.90;;;;;;4783301;29;20046;-79
2022/11/21 06:46:57;;;;;;;31.52;23.42;;;-0.10;99.90;;;;;;4803153;29;20542;-80
2022/11/21 06:49:22;;;;;;;32.97;22.08;;;-0.10;99.90;;;;;;4803837;29;20099;-80
2022/11/21 06:51:48;;;;;;;33.05;21.42;;;-0.20;99.90;;;;;;4789731;29;20050;-80
2022/11/21 06:54:14;;;;;;;29.83;20.55;;;-0.20;99.90;;;;;;4804544;29;20129;-80
2022/11/21 06:56:39;;;;;;;28.42;20.73;;;-0.20;99.90;;;;;;4801715;29;20039;-79
2022/11/21 06:59:05;;;;;;;29.27;20.73;;;-0.20;99.90;;;;;;4801635;29;20704;-80
2022/11/21 07:01:30;;;;;;;28.08;19.92;;;-0.30;99.90;;;;;;4801898;29;20057;-80
2022/11/21 07:03:56;;;;;;;27.30;19.52;;;-0.30;99.90;;;;;;4803231;29;20046;-79
2022/11/21 07:06:31;;;;;;;31.17;21.50;;;-0.40;99.90;;;;;;4803868;29;20166;-80
2022/11/21 07:08:57;;;;;;;25.87;19.20;;;-0.40;99.90;;;;;;4805256;29;20159;-80
2022/11/21 07:11:22;;;;;;;28.05;19.98;;;-0.10;99.90;;;;;;4804104;29;20843;-79
2022/11/21 07:13:48;;;;;;;26.65;19.88;;;-0.40;99.90;;;;;;4804119;29;20050;-79
2022/11/21 07:16:14;;;;;;;30.58;21.00;;;-0.40;99.90;;;;;;4805506;29;20054;-79
2022/11/21 07:18:40;;;;;;;27.67;20.40;;;-0.40;99.90;;;;;;4803458;29;20097;-79
2022/11/21 07:21:07;;;;;;;29.58;20.92;;;-0.30;99.90;;;;;;4805533;29;20046;-79
2022/11/21 07:23:36;;;;;;;29.23;21.10;;;-0.20;99.90;;;;;;4799698;29;20129;-79
2022/11/21 07:26:04;;;;;;;27.13;20.70;;;-0.10;99.90;;;;;;4797996;29;20188;-79
2022/11/21 07:28:31;;;;;;;29.75;21.08;;;0.00;99.90;;;;;;4807503;29;20081;-80
2022/11/21 07:30:57;;;;;;;26.10;20.00;;;-0.10;99.90;;;;;;4811541;29;20047;-80
2022/11/21 07:33:23;;;;;;;29.30;20.88;;;0.10;99.90;;;;;;4824040;29;20570;-81
2022/11/21 07:35:48;;;;;;;29.00;19.80;;;-0.10;99.90;;;;;;4809029;29;20105;-80
2022/11/21 07:38:14;;;;;;;27.50;20.30;;;0.00;99.90;;;;;;4806773;29;20056;-80
2022/11/21 07:40:39;;;;;;;28.67;19.80;;;0.00;99.90;;;;;;4801684;29;20122;-79
2022/11/21 07:43:05;;;;;;;25.13;19.60;;;0.10;99.90;;;;;;4804427;29;20081;-81
2022/11/21 07:45:33;;;;;;;26.50;19.77;;;0.10;99.90;;;;;;4787084;29;20046;-82
2022/11/21 07:48:01;;;;;;;25.20;18.80;;;0.00;99.90;;;;;;4800784;29;20096;-82
2022/11/21 07:50:29;;;;;;;29.70;21.02;;;0.10;99.90;;;;;;4823619;29;20050;-81
2022/11/21 07:53:03;;;;;;;29.25;20.70;;;0.10;99.90;;;;;;4804830;29;20042;-82
2022/11/21 07:55:29;;;;;;;35.00;24.52;;;0.10;99.90;;;;;;4817482;29;20043;-82
2022/11/21 07:57:58;;;;;;;32.88;22.30;;;0.10;99.90;;;;;;4817916;29;20082;-81
2022/11/21 08:00:25;;;;;;;31.63;21.98;;;0.10;99.90;;;;;;4820741;29;20500;-82
2022/11/21 08:02:51;;;;;;;30.10;20.90;;;0.20;99.90;;;;;;4804296;29;20072;-82
2022/11/21 08:05:20;;;;;;;28.00;20.05;;;0.20;99.90;;;;;;4803330;29;20146;-82
2022/11/21 08:07:45;;;;;;;26.45;20.27;;;0.20;99.90;;;;;;4815448;29;20102;-82
2022/11/21 08:10:11;;;;;;;28.05;20.20;;;0.30;99.90;;;;;;4796374;29;20042;-82
2022/11/21 08:12:37;;;;;;;30.08;19.77;;;0.30;99.90;;;;;;4801722;29;20050;-82
2022/11/21 08:15:05;;;;;;;28.40;19.70;;;0.30;99.90;;;;;;4789445;29;21590;-82
2022/11/21 08:17:31;;;;;;;27.08;19.13;;;0.30;99.90;;;;;;4794148;29;20047;-81
2022/11/21 08:20:07;;;;;;;26.15;20.10;;;0.40;99.90;;;;;;4791525;29;20085;-81
2022/11/21 08:22:40;;;;;;;29.65;20.33;;;0.30;99.90;;;;;;4805417;29;20234;-80
2022/11/21 08:25:06;;;;;;;27.52;19.92;;;0.40;99.90;;;;;;4818094;29;20043;-81
2022/11/21 08:27:36;;;;;;;27.90;20.35;;;0.50;99.90;;;;;;4809316;29;20042;-81
2022/11/21 08:30:03;;;;;;;24.85;19.60;;;0.60;99.90;;;;;;4787741;29;20062;-81
2022/11/21 08:32:28;;;;;;;28.75;18.95;;;0.60;99.90;;;;;;4821284;29;20038;-81
2022/11/21 08:35:13;;;;;;;24.42;19.38;;;0.70;99.90;;;;;;4785706;29;20049;-82
2022/11/21 08:37:41;;;;;;;26.55;19.70;;;0.60;99.90;;;;;;4809024;29;20050;-82
2022/11/21 08:40:07;;;;;;;31.40;21.33;;;0.70;99.90;;;;;;4796039;29;20058;-81
2022/11/21 08:42:37;;;;;;;24.38;18.45;;;0.60;99.90;;;;;;4792087;29;20204;-81
2022/11/21 08:45:17;;;;;;;24.90;18.70;;;0.70;99.90;;;;;;4810114;29;20195;-81
2022/11/21 08:47:46;;;;;;;29.42;19.67;;;0.60;99.90;;;;;;4824608;29;20620;-81
2022/11/21 08:50:12;;;;;;;28.92;20.35;;;0.90;99.90;;;;;;4798620;29;20042;-81
2022/11/21 08:52:38;;;;;;;28.30;19.58;;;1.00;99.90;;;;;;4808188;29;20509;-81
2022/11/21 08:55:08;;;;;;;31.73;21.38;;;1.10;99.90;;;;;;4809299;29;20073;-81
2022/11/21 08:57:38;;;;;;;31.90;21.20;;;1.20;99.90;;;;;;4800599;29;20054;-83
2022/11/21 09:00:14;;;;;;;32.33;21.45;;;1.10;99.90;;;;;;4788486;29;20679;-81
2022/11/21 09:02:55;;;;;;;26.63;19.70;;;1.10;99.90;;;;;;4810805;29;20050;-83
2022/11/21 09:05:21;;;;;;;25.65;18.00;;;1.20;99.90;;;;;;4823975;29;20054;-81
2022/11/21 09:07:57;;;;;;;23.25;16.48;;;1.10;99.90;;;;;;4799993;29;20189;-81
2022/11/21 09:10:32;;;;;;;21.63;15.30;;;2.30;99.90;;;;;;4798299;29;20061;-81
2022/11/21 09:12:58;;;;;;;19.63;15.00;;;1.20;99.90;;;;;;4804199;29;20108;-81
2022/11/21 09:18:10;;;;;;;26.60;19.30;;;1.30;99.90;;;;;;4820866;29;20112;-82
2022/11/21 09:20:43;;;;;;;25.90;20.20;;;1.40;99.90;;;;;;4819943;29;20088;-81
2022/11/21 09:23:15;;;;;;;30.10;22.48;;;1.30;99.90;;;;;;4823495;29;20046;-81
2022/11/21 09:25:44;;;;;;;28.80;21.30;;;1.40;99.90;;;;;;4787030;29;20057;-81
2022/11/21 09:28:18;;;;;;;27.70;21.30;;;1.40;99.90;;;;;;4819956;29;20088;-81
2022/11/21 09:30:44;;;;;;;30.40;21.60;;;1.40;99.90;;;;;;4800813;29;20043;-81
2022/11/21 09:33:19;;;;;;;21.83;16.05;;;1.40;99.90;;;;;;4803494;29;20594;-81
2022/11/21 09:35:44;;;;;;;24.27;17.97;;;1.40;99.90;;;;;;4803150;29;20054;-81
2022/11/21 09:38:11;;;;;;;26.75;17.13;;;1.50;99.90;;;;;;4805550;29;20131;-81
2022/11/21 09:40:42;;;;;;;28.65;20.80;;;1.50;99.90;;;;;;4790028;29;21166;-81
2022/11/21 09:43:43;;;;;;;25.65;18.52;;;1.70;99.90;;;;;;4807976;29;20050;-81
2022/11/21 09:46:16;;;;;;;31.08;21.05;;;1.40;99.90;;;;;;4807293;29;20474;-80
2022/11/21 09:48:53;;;;;;;30.95;20.77;;;1.30;99.90;;;;;;4821921;29;20046;-81
2022/11/21 09:51:21;;;;;;;30.58;19.83;;;1.30;99.90;;;;;;4801302;29;20038;-81
2022/11/21 09:53:58;;;;;;;28.35;19.33;;;1.30;99.90;;;;;;4804554;29;20038;-81
2022/11/21 09:56:27;;;;;;;28.02;19.90;;;1.20;99.90;;;;;;4804086;29;20042;-81
2022/11/21 09:59:30;;;;;;;30.63;19.85;;;1.20;99.90;;;;;;4808244;29;20042;-81
2022/11/21 10:01:59;;;;;;;27.65;18.67;;;1.00;99.90;;;;;;4823101;29;20054;-80
2022/11/21 10:04:26;;;;;;;25.38;17.60;;;1.50;99.90;;;;;;4802821;29;20050;-82
2022/11/21 10:07:15;;;;;;;28.48;18.95;;;1.20;99.90;;;;;;4782909;29;20046;-81
2022/11/21 10:10:05;;;;;;;27.45;18.85;;;1.20;99.90;;;;;;4818406;29;20050;-81
2022/11/21 10:12:58;;;;;;;27.27;18.98;;;1.30;99.90;;;;;;4799241;29;20565;-83
2022/11/21 10:15:44;;;;;;;26.48;18.35;;;1.40;99.90;;;;;;4817436;29;21022;-83
2022/11/21 10:18:18;;;;;;;21.23;16.30;;;1.50;99.90;;;;;;4804348;29;20103;-81
2022/11/21 10:21:06;;;;;;;25.38;17.58;;;1.60;99.90;;;;;;4820021;29;21082;-82
2022/11/21 10:24:13;;;;;;;30.75;21.05;;;1.70;99.90;;;;;;4815957;29;20137;-82
2022/11/21 10:26:59;;;;;;;27.27;18.33;;;1.70;99.90;;;;;;4799887;29;20537;-82
2022/11/21 10:29:44;;;;;;;23.20;17.30;;;1.70;99.90;;;;;;4816256;29;20502;-82
2022/11/21 10:32:18;;;;;;;22.10;16.95;;;1.80;99.90;;;;;;4802338;29;20038;-82
2022/11/21 10:34:45;;;;;;;22.40;16.67;;;1.80;99.90;;;;;;4781952;29;20137;-83
2022/11/21 10:37:35;;;;;;;22.98;17.40;;;1.90;99.90;;;;;;4817856;29;20111;-82
2022/11/21 10:40:15;;;;;;;23.40;16.73;;;1.90;99.90;;;;;;4815710;29;20046;-82
2022/11/21 10:42:59;;;;;;;19.25;15.27;;;2.00;99.90;;;;;;4802462;29;20054;-82
2022/11/21 10:45:25;;;;;;;18.60;15.25;;;2.20;99.90;;;;;;4819276;29;20162;-82
2022/11/21 10:48:16;;;;;;;18.92;14.90;;;2.40;99.90;;;;;;4797660;29;20084;-82
2022/11/21 10:51:32;;;;;;;16.98;14.95;;;2.40;99.90;;;;;;4785716;29;20057;-82
2022/11/21 10:56:53;;;;;;;19.38;15.80;;;2.60;99.90;;;;;;4817376;29;20426;-82
2022/11/21 10:59:39;;;;;;;20.38;15.65;;;2.60;99.90;;;;;;4803184;29;20056;-83
2022/11/21 11:02:11;;;;;;;23.25;18.48;;;2.80;99.90;;;;;;4813593;29;20043;-83
2022/11/21 11:04:40;;;;;;;19.02;15.95;;;2.80;99.90;;;;;;4800000;29;20046;-83
2022/11/21 11:07:25;;;;;;;17.65;14.68;;;2.70;99.90;;;;;;4818831;29;20049;-82
2022/11/21 11:10:15;;;;;;;20.67;16.13;;;2.70;99.90;;;;;;4800412;29;20046;-82
2022/11/21 11:15:28;;;;;;;20.40;15.50;;;2.80;99.90;;;;;;4802132;29;20057;-83
2022/11/21 11:25:50;;;;;;;15.48;13.60;;;3.10;99.90;;;;;;4817851;29;20196;-83
2022/11/21 11:28:18;;;;;;;22.98;14.43;;;3.20;99.90;;;;;;4803837;29;20118;-83
2022/11/21 11:31:13;;;;;;;17.92;14.18;;;3.30;99.90;;;;;;4786610;29;20046;-83
2022/11/21 11:34:29;;;;;;;16.77;14.43;;;4.00;99.90;;;;;;4787228;29;20050;-84
2022/11/21 11:37:36;;;;;;;15.48;13.65;;;3.40;99.90;;;;;;4803057;29;20046;-84
2022/11/21 11:40:35;;;;;;;15.82;14.15;;;3.40;99.90;;;;;;4801410;29;20545;-84
2022/11/21 11:51:03;;;;;;;17.33;14.82;;;3.50;99.90;;;;;;4819236;29;20072;-83
2022/11/21 11:57:43;;;;;;;17.83;14.43;;;3.50;99.90;;;;;;4810707;29;20042;-84
2022/11/21 12:00:31;;;;;;;17.85;15.23;;;3.80;99.90;;;;;;4804106;29;20090;-83
2022/11/21 12:03:10;;;;;;;16.75;13.90;;;3.70;99.90;;;;;;4819636;29;20057;-83
2022/11/21 12:05:45;;;;;;;17.60;13.40;;;3.70;99.90;;;;;;4815773;29;20185;-83
2022/11/21 12:08:40;;;;;;;14.75;13.15;;;3.80;99.90;;;;;;4807806;29;20039;-83
2022/11/21 12:17:09;;;;;;;13.27;11.40;;;3.90;99.90;;;;;;4805033;29;20054;-83
2022/11/21 12:19:36;;;;;;;13.93;12.48;;;4.00;99.90;;;;;;4811414;29;20041;-83
2022/11/21 12:22:05;;;;;;;14.13;11.63;;;4.00;99.90;;;;;;4804221;29;20065;-83
2022/11/21 12:24:40;;;;;;;13.32;11.93;;;4.00;99.90;;;;;;4818220;29;20054;-83
2022/11/21 12:27:41;;;;;;;15.82;14.02;;;4.10;99.90;;;;;;4823031;29;20821;-85
2022/11/21 12:30:22;;;;;;;13.38;11.98;;;4.20;99.90;;;;;;4768043;29;20533;-84
2022/11/21 12:33:02;;;;;;;14.15;12.65;;;4.20;99.90;;;;;;4816722;29;20054;-83
2022/11/21 12:36:14;;;;;;;14.35;12.68;;;4.20;99.90;;;;;;4819417;29;20053;-84
2022/11/21 12:39:41;;;;;;;16.75;12.57;;;4.40;99.90;;;;;;4775004;29;20504;-83
2022/11/21 12:42:49;;;;;;;14.75;12.93;;;4.20;99.90;;;;;;4803989;29;20054;-83
2022/11/21 12:45:57;;;;;;;18.70;13.10;;;4.20;99.90;;;;;;4807090;29;20061;-86
2022/11/21 12:55:33;;;;;;;14.52;12.63;;;4.20;99.90;;;;;;4793284;29;20057;-84
2022/11/21 12:58:08;;;;;;;13.30;11.90;;;4.20;99.90;;;;;;4807682;29;20446;-84
2022/11/21 13:01:08;;;;;;;14.80;12.38;;;4.90;99.90;;;;;;4804724;29;20105;-83
2022/11/21 13:04:00;;;;;;;13.80;11.85;;;4.30;99.90;;;;;;4820059;29;20046;-83
2022/11/21 13:06:30;;;;;;;14.85;12.57;;;4.30;99.90;;;;;;4790010;29;20073;-83
2022/11/21 13:08:57;;;;;;;14.43;12.70;;;4.40;99.90;;;;;;4822352;29;20034;-84
2022/11/21 13:11:58;;;;;;;15.48;13.23;;;4.50;99.90;;;;;;4815400;29;20501;-83
2022/11/21 13:14:33;;;;;;;15.95;12.38;;;4.40;99.90;;;;;;4822406;29;20038;-83
2022/11/21 13:17:05;;;;;;;15.80;14.10;;;4.30;99.90;;;;;;4809439;29;20473;-83
2022/11/21 13:19:42;;;;;;;16.15;13.77;;;4.30;99.90;;;;;;4805964;29;20050;-83
2022/11/21 13:22:38;;;;;;;17.30;13.90;;;4.90;99.90;;;;;;4807355;29;20554;-84
2022/11/21 13:25:32;;;;;;;16.98;14.05;;;4.30;99.90;;;;;;4819280;29;20111;-84
2022/11/21 13:28:28;;;;;;;19.17;14.65;;;4.40;99.90;;;;;;4819813;29;20049;-84
2022/11/21 13:30:55;;;;;;;19.67;15.88;;;4.40;99.90;;;;;;4818024;29;20051;-84
2022/11/21 13:33:33;;;;;;;20.42;16.98;;;4.30;99.90;;;;;;4820084;29;20042;-84
2022/11/21 13:36:31;;;;;;;21.52;17.10;;;4.40;99.90;;;;;;4818430;29;20086;-84
2022/11/21 13:38:56;;;;;;;22.33;16.92;;;4.40;99.90;;;;;;4803091;29;20127;-84
2022/11/21 13:44:30;;;;;;;21.70;16.33;;;4.50;99.90;;;;;;4819254;29;20062;-84
2022/11/21 13:47:31;;;;;;;20.88;15.85;;;4.50;99.90;;;;;;4820369;29;20038;-84
2022/11/21 13:50:29;;;;;;;22.90;16.23;;;4.70;99.90;;;;;;4818256;29;20104;-84